createdAt,value
2019-05-22T00:00:41.588Z,95016.06
2019-05-22T00:03:15.673Z,95018.13
2019-05-22T00:05:47.995Z,95017.50
2019-05-22T00:08:19.864Z,95023.41
2019-05-22T00:10:51.755Z,95029.78
2019-05-22T00:13:31.050Z,95025.59
2019-05-22T00:16:03.934Z,95019.97
2019-05-22T00:18:34.930Z,95025.05
2019-05-22T00:21:05.296Z,95021.65
2019-05-22T00:23:37.033Z,95025.44
2019-05-22T00:26:07.643Z,95026.03
2019-05-22T00:28:38.899Z,95029.09
2019-05-22T00:31:09.193Z,95031.36
2019-05-22T00:33:39.871Z,95028.40
2019-05-22T00:36:13.351Z,95023.36
2019-05-22T00:38:44.428Z,95029.78
2019-05-22T00:41:18.436Z,95029.78
2019-05-22T00:43:49.432Z,95038.16
2019-05-22T00:46:21.294Z,95027.31
2019-05-22T00:48:52.246Z,95033.43
2019-05-22T00:51:47.145Z,95028.89
2019-05-22T00:54:36.917Z,95036.00
2019-05-22T00:57:21.987Z,95033.20
2019-05-22T00:59:54.915Z,95044.98
2019-05-22T01:02:28.024Z,95040.60
2019-05-22T01:04:59.786Z,95044.94
2019-05-22T01:07:37.172Z,95039.71
2019-05-22T01:10:11.614Z,95040.63
2019-05-22T01:12:44.097Z,95037.18
2019-05-22T01:15:20.775Z,95039.75
2019-05-22T01:17:51.028Z,95043.50
2019-05-22T01:20:24.493Z,95045.56
2019-05-22T01:22:57.632Z,95047.84
2019-05-22T01:25:29.015Z,95049.71
2019-05-22T01:28:00.294Z,95052.57
2019-05-22T01:30:40.035Z,95060.89
2019-05-22T01:33:14.157Z,95051.59
2019-05-22T01:35:50.609Z,95049.61
2019-05-22T01:38:23.085Z,95046.66
2019-05-22T01:40:58.835Z,95049.05
2019-05-22T01:43:29.872Z,95059.11
2019-05-22T01:46:03.280Z,95047.84
2019-05-22T01:48:37.349Z,95050.50
2019-05-22T01:51:07.291Z,95054.05
2019-05-22T01:53:40.928Z,95059.38
2019-05-22T01:56:12.776Z,95059.41
2019-05-22T01:58:45.843Z,95062.23
2019-05-22T02:01:20.795Z,95065.89
2019-05-22T02:03:54.379Z,95057.80
2019-05-22T02:06:25.057Z,95068.59
2019-05-22T02:09:02.636Z,95067.20
2019-05-22T02:11:33.449Z,95064.13
2019-05-22T02:14:09.933Z,95074.20
2019-05-22T02:16:56.302Z,95068.38
2019-05-22T02:19:18.278Z,95069.15
2019-05-22T02:21:49.325Z,95071.52
2019-05-22T02:24:20.215Z,95067.30
2019-05-22T02:26:51.328Z,95081.49
2019-05-22T02:29:22.161Z,95072.01
2019-05-22T02:31:55.567Z,95068.77
2019-05-22T02:34:26.245Z,95082.38
2019-05-22T02:36:57.734Z,95069.56
2019-05-22T02:39:30.543Z,95076.66
2019-05-22T02:42:06.501Z,95077.75
2019-05-22T02:44:38.196Z,95079.12
2019-05-22T02:47:18.880Z,95079.61
2019-05-22T02:49:42.255Z,95078.03
2019-05-22T02:52:12.834Z,95074.28
2019-05-22T02:54:42.916Z,95073.59
2019-05-22T02:57:13.313Z,95082.48
2019-05-22T02:59:43.819Z,95088.20
2019-05-22T03:02:15.922Z,95078.92
2019-05-22T03:05:05.642Z,95088.39
2019-05-22T03:07:36.110Z,95085.23
2019-05-22T03:10:08.075Z,95086.33
2019-05-22T03:12:39.007Z,95092.34
2019-05-22T03:15:12.963Z,95089.38
2019-05-22T03:17:47.455Z,95098.65
2019-05-22T03:20:24.223Z,95100.16
2019-05-22T03:23:30.808Z,95093.63
2019-05-22T03:26:01.935Z,95098.27
2019-05-22T03:28:32.236Z,95100.63
2019-05-22T03:31:03.493Z,95102.41
2019-05-22T03:33:34.563Z,95106.36
2019-05-22T03:36:11.218Z,95112.37
2019-05-22T03:38:41.790Z,95102.20
2019-05-22T03:41:13.652Z,95111.89
2019-05-22T03:43:46.238Z,95109.50
2019-05-22T03:46:34.262Z,95109.42
2019-05-22T03:49:05.704Z,95112.17
2019-05-22T03:51:36.251Z,95119.10
2019-05-22T03:54:06.577Z,95116.41
2019-05-22T03:56:43.192Z,95114.66
2019-05-22T03:59:13.689Z,95121.34
2019-05-22T04:01:45.058Z,95127.88
2019-05-22T04:04:33.960Z,95128.75
2019-05-22T04:07:08.497Z,95124.01
2019-05-22T04:09:40.130Z,95124.02
2019-05-22T04:12:11.566Z,95126.18
2019-05-22T04:14:42.470Z,95134.98
2019-05-22T04:17:15.071Z,95136.67
2019-05-22T04:19:51.035Z,95144.44
2019-05-22T04:22:19.055Z,95140.11
2019-05-22T04:24:50.045Z,95145.92
2019-05-22T04:27:20.367Z,95143.38
2019-05-22T04:29:51.219Z,95143.75
2019-05-22T04:32:31.607Z,95146.73
2019-05-22T04:35:02.419Z,95146.03
2019-05-22T04:37:33.134Z,95150.88
2019-05-22T04:40:44.280Z,95153.25
2019-05-22T04:43:20.097Z,95157.67
2019-05-22T04:45:48.401Z,95160.15
2019-05-22T04:48:19.588Z,95158.45
2019-05-22T04:50:51.979Z,95159.45
2019-05-22T04:53:22.046Z,95155.80
2019-05-22T04:55:53.060Z,95158.77
2019-05-22T04:58:26.494Z,95158.76
2019-05-22T05:00:56.891Z,95161.42
2019-05-22T05:03:29.309Z,95159.17
2019-05-22T05:06:00.177Z,95159.45
2019-05-22T05:08:30.647Z,95156.50
2019-05-22T05:11:03.005Z,95160.33
2019-05-22T05:13:33.339Z,95159.57
2019-05-22T05:16:04.163Z,95165.78
2019-05-22T05:18:35.189Z,95164.41
2019-05-22T05:21:06.520Z,95163.49
2019-05-22T05:23:36.589Z,95162.14
2019-05-22T05:26:07.806Z,95163.60
2019-05-22T05:28:38.627Z,95165.68
2019-05-22T05:31:08.787Z,95174.08
2019-05-22T05:34:01.694Z,95177.03
2019-05-22T05:36:32.384Z,95185.81
2019-05-22T05:39:07.097Z,95175.46
2019-05-22T05:41:37.227Z,95175.27
2019-05-22T05:44:07.793Z,95179.31
2019-05-22T05:46:37.887Z,95172.79
2019-05-22T05:49:07.800Z,95186.98
2019-05-22T05:51:43.087Z,95187.78
2019-05-22T05:54:15.271Z,95188.19
2019-05-22T05:56:48.376Z,95194.10
2019-05-22T05:59:22.583Z,95198.55
2019-05-22T06:02:01.125Z,95208.31
2019-05-22T06:04:36.355Z,95205.55
2019-05-22T06:07:27.865Z,95204.08
2019-05-22T06:10:34.366Z,95202.90
2019-05-22T06:13:05.237Z,95210.39
2019-05-22T06:15:47.216Z,95213.28
2019-05-22T06:18:35.448Z,95224.72
2019-05-22T06:21:09.913Z,95212.48
2019-05-22T06:24:23.394Z,95221.86
2019-05-22T06:27:12.613Z,95221.58
2019-05-22T06:29:55.661Z,95229.17
2019-05-22T06:32:54.777Z,95225.22
2019-05-22T06:35:26.705Z,95224.02
2019-05-22T06:38:24.162Z,95234.61
2019-05-22T06:40:54.497Z,95233.22
2019-05-22T06:44:10.186Z,95239.33
2019-05-22T06:46:47.564Z,95235.78
2019-05-22T06:49:37.183Z,95241.61
2019-05-22T06:52:08.188Z,95240.33
2019-05-22T06:54:38.850Z,95243.39
2019-05-22T06:57:26.463Z,95253.95
2019-05-22T07:00:12.293Z,95249.73
2019-05-22T07:02:31.722Z,95247.95
2019-05-22T07:05:02.008Z,95244.66
2019-05-22T07:07:32.135Z,95246.34
2019-05-22T07:10:02.467Z,95246.06
2019-05-22T07:12:35.327Z,95250.38
2019-05-22T07:15:31.283Z,95249.09
2019-05-22T07:18:03.270Z,95243.97
2019-05-22T07:20:35.741Z,95252.97
2019-05-22T07:23:07.957Z,95260.85
2019-05-22T07:25:40.205Z,95254.13
2019-05-22T07:28:11.482Z,95256.70
2019-05-22T07:30:41.437Z,95273.50
2019-05-22T07:33:12.325Z,95265.10
2019-05-22T07:36:04.485Z,95264.02
2019-05-22T07:38:16.879Z,95271.95
2019-05-22T07:40:50.643Z,95280.85
2019-05-22T07:43:20.910Z,95273.61
2019-05-22T07:45:52.740Z,95279.63
2019-05-22T07:48:25.785Z,95276.17
2019-05-22T07:50:57.403Z,95272.44
2019-05-22T07:53:28.643Z,95274.49
2019-05-22T07:56:02.621Z,95272.22
2019-05-22T07:58:33.120Z,95271.33
2019-05-22T08:01:03.471Z,95266.98
2019-05-22T08:03:34.208Z,95268.80
2019-05-22T08:06:06.298Z,95263.02
2019-05-22T08:08:37.042Z,95268.20
2019-05-22T08:11:07.505Z,95269.00
2019-05-22T08:13:38.567Z,95264.30
2019-05-22T08:16:09.722Z,95277.84
2019-05-22T08:18:40.616Z,95266.97
2019-05-22T08:21:11.710Z,95263.28
2019-05-22T08:23:42.189Z,95270.48
2019-05-22T08:26:17.311Z,95266.50
2019-05-22T08:28:47.304Z,95265.22
2019-05-22T08:31:20.055Z,95273.73
2019-05-22T08:33:50.164Z,95263.08
2019-05-22T08:36:20.162Z,95267.97
2019-05-22T08:38:50.852Z,95274.20
2019-05-22T08:41:27.274Z,95272.59
2019-05-22T08:44:15.436Z,95263.11
2019-05-22T08:46:29.962Z,95273.59
2019-05-22T08:49:00.122Z,95272.31
2019-05-22T08:51:30.468Z,95274.34
2019-05-22T08:54:00.780Z,95279.50
2019-05-22T08:56:35.918Z,95283.87
2019-05-22T08:59:18.818Z,95278.14
2019-05-22T09:01:40.149Z,95288.97
2019-05-22T09:04:10.519Z,95281.16
2019-05-22T09:06:40.668Z,95285.91
2019-05-22T09:09:11.689Z,95293.34
2019-05-22T09:11:41.654Z,95291.50
2019-05-22T09:14:11.810Z,95299.56
2019-05-22T09:16:41.741Z,95297.78
2019-05-22T09:19:12.160Z,95296.41
2019-05-22T09:21:42.874Z,95296.79
2019-05-22T09:24:17.007Z,95305.10
2019-05-22T09:26:47.259Z,95300.56
2019-05-22T09:29:17.532Z,95303.58
2019-05-22T09:31:47.557Z,95307.09
2019-05-22T09:34:17.696Z,95300.20
2019-05-22T09:36:48.685Z,95305.80
2019-05-22T09:39:18.757Z,95311.05
2019-05-22T09:41:48.661Z,95320.49
2019-05-22T09:44:18.767Z,95319.34
2019-05-22T09:46:49.322Z,95318.98
2019-05-22T09:49:23.610Z,95319.24
2019-05-22T09:51:51.458Z,95320.20
2019-05-22T09:54:22.066Z,95325.59
2019-05-22T09:56:52.050Z,95329.68
2019-05-22T09:59:22.132Z,95328.10
2019-05-22T10:01:52.150Z,95325.89
2019-05-22T10:04:22.336Z,95329.11
2019-05-22T10:06:52.428Z,95332.23
2019-05-22T10:09:22.731Z,95336.33
2019-05-22T10:11:53.254Z,95329.34
2019-05-22T10:14:23.807Z,95325.88
2019-05-22T10:16:54.280Z,95331.31
2019-05-22T10:19:24.877Z,95313.03
2019-05-22T10:21:55.413Z,95319.57
2019-05-22T10:24:25.478Z,95329.50
2019-05-22T10:26:55.873Z,95324.13
2019-05-22T10:29:26.678Z,95323.56
2019-05-22T10:31:56.565Z,95330.98
2019-05-22T10:34:26.979Z,95335.68
2019-05-22T10:36:56.973Z,95333.22
2019-05-22T10:39:28.063Z,95337.23
2019-05-22T10:41:57.934Z,95345.86
2019-05-22T10:44:28.332Z,95341.96
2019-05-22T10:46:58.319Z,95350.27
2019-05-22T10:49:28.305Z,95349.10
2019-05-22T10:51:58.277Z,95347.31
2019-05-22T10:54:28.470Z,95347.97
2019-05-22T10:56:58.572Z,95344.19
2019-05-22T10:59:28.475Z,95342.47
2019-05-22T11:01:58.562Z,95337.50
2019-05-22T11:04:29.578Z,95337.77
2019-05-22T11:06:59.678Z,95342.97
2019-05-22T11:09:30.849Z,95346.10
2019-05-22T11:12:01.138Z,95350.16
2019-05-22T11:14:31.442Z,95355.22
2019-05-22T11:17:01.695Z,95353.44
2019-05-22T11:19:32.318Z,95355.34
2019-05-22T11:22:04.058Z,95354.22
2019-05-22T11:24:36.304Z,95361.51
2019-05-22T11:27:06.530Z,95364.12
2019-05-22T11:29:36.582Z,95357.14
2019-05-22T11:32:07.072Z,95358.47
2019-05-22T11:34:37.387Z,95359.20
2019-05-22T11:37:07.963Z,95350.51
2019-05-22T11:39:40.338Z,95359.80
2019-05-22T11:42:11.163Z,95358.42
2019-05-22T11:44:41.752Z,95357.24
2019-05-22T11:47:13.932Z,95355.56
2019-05-22T11:49:43.846Z,95353.23
2019-05-22T11:52:14.237Z,95351.94
2019-05-22T11:54:45.021Z,95360.13
2019-05-22T11:57:16.673Z,95352.88
2019-05-22T11:59:47.299Z,95359.97
2019-05-22T12:02:17.345Z,95355.81
2019-05-22T12:04:48.896Z,95361.14
2019-05-22T12:07:19.570Z,95366.55
2019-05-22T12:09:49.940Z,95371.31
2019-05-22T12:12:20.309Z,95369.69
2019-05-22T12:14:50.243Z,95371.84
2019-05-22T12:17:36.742Z,95370.55
2019-05-22T12:19:53.662Z,95371.68
2019-05-22T12:22:23.709Z,95365.83
2019-05-22T12:24:53.809Z,95367.35
2019-05-22T12:27:25.506Z,95364.16
2019-05-22T12:29:55.614Z,95360.38
2019-05-22T12:32:27.641Z,95360.09
2019-05-22T12:34:57.563Z,95357.02
2019-05-22T12:37:28.541Z,95366.71
2019-05-22T12:40:00.295Z,95367.48
2019-05-22T12:42:30.994Z,95364.00
2019-05-22T12:45:01.026Z,95358.03
2019-05-22T12:47:31.206Z,95359.52
2019-05-22T12:50:02.698Z,95368.06
2019-05-22T12:52:33.243Z,95355.45
2019-05-22T12:55:04.443Z,95353.61
2019-05-22T12:57:35.110Z,95361.98
2019-05-22T13:00:05.661Z,95364.35
2019-05-22T13:02:36.932Z,95358.54
2019-05-22T13:05:07.999Z,95367.39
2019-05-22T13:07:38.399Z,95354.31
2019-05-22T13:10:09.377Z,95362.73
2019-05-22T13:12:39.669Z,95358.51
2019-05-22T13:15:10.961Z,95378.36
2019-05-22T13:17:41.451Z,95363.50
2019-05-22T13:20:13.907Z,95361.77
2019-05-22T13:22:47.575Z,95362.09
2019-05-22T13:25:19.815Z,95357.86
2019-05-22T13:27:52.067Z,95357.14
2019-05-22T13:30:28.426Z,95361.34
2019-05-22T13:32:58.069Z,95362.88
2019-05-22T13:35:29.170Z,95373.11
2019-05-22T13:38:00.140Z,95363.52
2019-05-22T13:40:32.697Z,95365.97
2019-05-22T13:43:03.858Z,95360.25
2019-05-22T13:45:35.002Z,95370.86
2019-05-22T13:48:05.179Z,95367.91
2019-05-22T13:50:35.965Z,95374.30
2019-05-22T13:53:06.459Z,95375.37
2019-05-22T13:55:36.863Z,95376.86
2019-05-22T13:58:07.909Z,95369.29
2019-05-22T14:00:38.977Z,95373.64
2019-05-22T14:03:09.893Z,95385.81
2019-05-22T14:05:42.035Z,95376.34
2019-05-22T14:08:12.184Z,95381.48
2019-05-22T14:10:43.974Z,95382.63
2019-05-22T14:13:14.361Z,95382.70
2019-05-22T14:15:54.690Z,95387.39
2019-05-22T14:18:16.315Z,95384.33
2019-05-22T14:20:46.809Z,95379.91
2019-05-22T14:23:18.074Z,95384.07
2019-05-22T14:25:48.654Z,95375.59
2019-05-22T14:28:19.272Z,95382.73
2019-05-22T14:30:49.879Z,95387.84
2019-05-22T14:33:20.141Z,95382.08
2019-05-22T14:35:52.553Z,95382.30
2019-05-22T14:38:22.659Z,95387.78
2019-05-22T14:40:52.684Z,95378.68
2019-05-22T14:43:22.590Z,95381.97
2019-05-22T14:45:53.160Z,95375.91
2019-05-22T14:48:23.181Z,95374.30
2019-05-22T14:50:53.160Z,95371.97
2019-05-22T14:53:23.266Z,95382.91
2019-05-22T14:55:53.926Z,95376.35
2019-05-22T14:58:24.390Z,95388.13
2019-05-22T15:00:54.700Z,95381.75
2019-05-22T15:03:25.217Z,95383.80
2019-05-22T15:05:55.280Z,95385.70
2019-05-22T15:08:25.421Z,95386.77
2019-05-22T15:10:55.909Z,95388.28
2019-05-22T15:13:26.870Z,95385.66
2019-05-22T15:15:56.902Z,95390.07
2019-05-22T15:18:27.042Z,95384.34
2019-05-22T15:21:02.480Z,95384.56
2019-05-22T15:23:33.463Z,95389.77
2019-05-22T15:26:04.085Z,95388.71
2019-05-22T15:28:34.541Z,95388.67
2019-05-22T15:31:06.508Z,95390.05
2019-05-22T15:33:36.944Z,95397.98
2019-05-22T15:36:10.516Z,95396.55
2019-05-22T15:38:42.188Z,95405.16
2019-05-22T15:41:13.218Z,95396.87
2019-05-22T15:43:51.740Z,95392.72
2019-05-22T15:46:19.006Z,95390.48
2019-05-22T15:48:50.699Z,95395.50
2019-05-22T15:51:26.014Z,95394.91
2019-05-22T15:53:59.837Z,95392.97
2019-05-22T15:56:31.783Z,95396.59
2019-05-22T15:59:05.039Z,95387.75
2019-05-22T16:01:36.949Z,95390.27
2019-05-22T16:04:10.019Z,95390.63
2019-05-22T16:06:40.381Z,95391.48
2019-05-22T16:09:15.201Z,95392.48
2019-05-22T16:11:47.104Z,95391.75
2019-05-22T16:14:17.372Z,95397.21
2019-05-22T16:16:51.171Z,95390.37
2019-05-22T16:19:24.616Z,95389.40
2019-05-22T16:21:56.615Z,95402.36
2019-05-22T16:24:27.360Z,95398.56
2019-05-22T16:26:57.482Z,95397.29
2019-05-22T16:29:28.501Z,95400.70
2019-05-22T16:32:00.364Z,95398.72
2019-05-22T16:34:30.495Z,95399.23
2019-05-22T16:37:03.902Z,95400.22
2019-05-22T16:39:34.133Z,95400.96
2019-05-22T16:42:04.799Z,95408.26
2019-05-22T16:44:34.880Z,95404.86
2019-05-22T16:47:06.768Z,95415.46
2019-05-22T16:49:38.125Z,95409.78
2019-05-22T16:52:11.294Z,95410.50
2019-05-22T16:54:42.844Z,95410.88
2019-05-22T16:57:13.305Z,95410.39
2019-05-22T16:59:45.078Z,95411.95
2019-05-22T17:02:17.849Z,95410.60
2019-05-22T17:04:48.666Z,95412.78
2019-05-22T17:07:19.306Z,95406.77
2019-05-22T17:09:51.794Z,95403.41
2019-05-22T17:12:23.324Z,95415.04
2019-05-22T17:14:54.408Z,95405.06
2019-05-22T17:17:25.081Z,95412.72
2019-05-22T17:19:55.303Z,95412.16
2019-05-22T17:22:26.103Z,95409.33
2019-05-22T17:24:56.923Z,95408.36
2019-05-22T17:27:26.977Z,95409.62
2019-05-22T17:29:57.935Z,95413.31
2019-05-22T17:32:28.711Z,95411.95
2019-05-22T17:34:59.538Z,95410.16
2019-05-22T17:37:30.634Z,95421.89
2019-05-22T17:40:02.105Z,95418.94
2019-05-22T17:42:33.017Z,95422.88
2019-05-22T17:45:03.439Z,95420.16
2019-05-22T17:47:33.849Z,95430.94
2019-05-22T17:50:04.414Z,95434.52
2019-05-22T17:52:34.729Z,95433.19
2019-05-22T17:55:06.186Z,95434.31
2019-05-22T17:57:38.043Z,95432.44
2019-05-22T18:00:16.879Z,95426.78
2019-05-22T18:02:46.898Z,95429.20
2019-05-22T18:05:18.810Z,95428.20
2019-05-22T18:07:49.189Z,95431.73
2019-05-22T18:10:19.462Z,95429.36
2019-05-22T18:12:49.549Z,95434.44
2019-05-22T18:15:20.409Z,95435.98
2019-05-22T18:17:50.967Z,95429.66
2019-05-22T18:20:21.837Z,95432.98
2019-05-22T18:22:52.013Z,95440.63
2019-05-22T18:25:22.380Z,95444.13
2019-05-22T18:27:53.455Z,95444.51
2019-05-22T18:30:24.316Z,95447.67
2019-05-22T18:32:54.410Z,95448.48
2019-05-22T18:35:24.382Z,95448.38
2019-05-22T18:37:54.493Z,95449.13
2019-05-22T18:40:24.473Z,95450.08
2019-05-22T18:42:54.796Z,95453.38
2019-05-22T18:45:25.311Z,95456.16
2019-05-22T18:47:55.952Z,95462.48
2019-05-22T18:50:26.577Z,95456.97
2019-05-22T18:52:56.790Z,95461.13
2019-05-22T18:55:26.878Z,95467.65
2019-05-22T18:57:56.802Z,95460.95
2019-05-22T19:00:29.094Z,95468.91
2019-05-22T19:02:59.188Z,95475.38
2019-05-22T19:05:31.673Z,95473.07
2019-05-22T19:08:01.687Z,95474.77
2019-05-22T19:10:32.783Z,95477.41
2019-05-22T19:13:03.153Z,95478.85
2019-05-22T19:15:33.715Z,95476.48
2019-05-22T19:18:03.709Z,95479.08
2019-05-22T19:20:34.208Z,95480.42
2019-05-22T19:23:04.398Z,95474.70
2019-05-22T19:25:34.510Z,95481.59
2019-05-22T19:28:04.861Z,95483.36
2019-05-22T19:30:36.334Z,95485.64
2019-05-22T19:33:06.658Z,95491.88
2019-05-22T19:35:36.725Z,95492.67
2019-05-22T19:38:06.903Z,95495.95
2019-05-22T19:40:37.568Z,95500.59
2019-05-22T19:43:07.727Z,95501.59
2019-05-22T19:45:38.009Z,95500.53
2019-05-22T19:48:08.115Z,95502.44
2019-05-22T19:50:38.903Z,95505.61
2019-05-22T19:53:18.812Z,95500.47
2019-05-22T19:55:42.004Z,95506.55
2019-05-22T19:58:12.967Z,95508.44
2019-05-22T20:00:42.996Z,95515.97
2019-05-22T20:03:15.060Z,95509.73
2019-05-22T20:05:45.512Z,95506.59
2019-05-22T20:08:15.425Z,95505.61
2019-05-22T20:10:45.613Z,95513.45
2019-05-22T20:13:17.207Z,95506.02
2019-05-22T20:15:47.777Z,95507.61
2019-05-22T20:18:18.205Z,95508.88
2019-05-22T20:20:48.290Z,95505.92
2019-05-22T20:23:34.286Z,95509.67
2019-05-22T20:25:52.557Z,95507.69
2019-05-22T20:28:22.790Z,95503.32
2019-05-22T20:30:52.897Z,95519.55
2019-05-22T20:33:26.737Z,95513.01
2019-05-22T20:35:55.097Z,95508.95
2019-05-22T20:38:25.510Z,95518.85
2019-05-22T20:40:56.586Z,95515.00
2019-05-22T20:43:27.657Z,95511.63
2019-05-22T20:45:58.140Z,95514.99
2019-05-22T20:48:30.682Z,95525.94
2019-05-22T20:51:01.107Z,95515.66
2019-05-22T20:53:33.381Z,95519.00
2019-05-22T20:56:03.521Z,95521.41
2019-05-22T20:58:33.839Z,95516.77
2019-05-22T21:01:05.832Z,95518.95
2019-05-22T21:03:36.805Z,95518.34
2019-05-22T21:06:10.354Z,95514.77
2019-05-22T21:08:42.112Z,95517.64
2019-05-22T21:11:15.091Z,95520.59
2019-05-22T21:13:46.212Z,95519.19
2019-05-22T21:16:17.584Z,95508.12
2019-05-22T21:18:51.721Z,95508.20
2019-05-22T21:21:23.708Z,95517.91
2019-05-22T21:24:07.677Z,95518.81
2019-05-22T21:26:25.726Z,95515.22
2019-05-22T21:28:55.968Z,95521.50
2019-05-22T21:31:26.122Z,95516.44
2019-05-22T21:33:56.820Z,95526.72
2019-05-22T21:36:28.122Z,95519.31
2019-05-22T21:38:58.434Z,95519.31
2019-05-22T21:41:28.667Z,95527.39
2019-05-22T21:43:58.757Z,95523.20
2019-05-22T21:46:28.692Z,95526.94
2019-05-22T21:48:59.371Z,95519.72
2019-05-22T21:51:29.566Z,95529.50
2019-05-22T21:53:59.753Z,95528.48
2019-05-22T21:56:30.650Z,95522.05
2019-05-22T21:59:00.829Z,95529.94
2019-05-22T22:01:50.203Z,95520.96
2019-05-22T22:04:22.572Z,95523.45
2019-05-22T22:06:55.202Z,95530.59
2019-05-22T22:09:26.270Z,95530.67
2019-05-22T22:11:57.100Z,95524.44
2019-05-22T22:14:27.651Z,95528.09
2019-05-22T22:16:57.845Z,95524.20
2019-05-22T22:19:30.410Z,95525.72
2019-05-22T22:22:00.861Z,95523.80
2019-05-22T22:24:31.153Z,95521.98
2019-05-22T22:27:01.663Z,95524.06
2019-05-22T22:29:31.883Z,95520.89
2019-05-22T22:32:02.449Z,95524.81
2019-05-22T22:34:47.354Z,95525.34
2019-05-22T22:37:19.055Z,95532.31
2019-05-22T22:39:55.187Z,95525.92
2019-05-22T22:42:29.225Z,95526.86
2019-05-22T22:44:59.582Z,95526.59
2019-05-22T22:47:37.318Z,95529.83
2019-05-22T22:50:09.811Z,95534.18
2019-05-22T22:52:40.671Z,95523.14
2019-05-22T22:55:14.258Z,95528.34
2019-05-22T22:57:46.721Z,95524.81
2019-05-22T23:00:22.993Z,95529.88
2019-05-22T23:02:53.629Z,95523.01
2019-05-22T23:05:24.454Z,95530.30
2019-05-22T23:07:55.652Z,95526.22
2019-05-22T23:10:26.126Z,95523.46
2019-05-22T23:12:56.909Z,95521.28
2019-05-22T23:15:28.374Z,95523.69
2019-05-22T23:17:58.473Z,95520.34
2019-05-22T23:20:27.422Z,95525.20
2019-05-22T23:22:55.822Z,95523.41
2019-05-22T23:25:25.845Z,95525.01
2019-05-22T23:27:55.765Z,95527.22
2019-05-22T23:30:25.990Z,95532.81
2019-05-22T23:32:57.391Z,95532.52
2019-05-22T23:35:30.347Z,95523.94
2019-05-22T23:38:02.086Z,95529.19
2019-05-22T23:40:36.304Z,95525.27
2019-05-22T23:43:07.030Z,95524.95
2019-05-22T23:45:37.598Z,95533.75
2019-05-22T23:48:16.316Z,95529.91
2019-05-22T23:50:48.259Z,95533.82
2019-05-22T23:53:18.509Z,95533.16
2019-05-22T23:55:48.590Z,95527.59
2019-05-22T23:58:20.021Z,95527.66
